sensor_id;sensor_type;location;lat;lon;timestamp;temperature;humidity
65995;HTU21D;52764;51.036;5.852;2023-12-22T00:02:08;9.47;78.34
65995;HTU21D;52764;51.036;5.852;2023-12-22T00:04:34;9.22;78.26
65995;HTU21D;52764;51.036;5.852;2023-12-22T00:06:59;9.11;78.18
65995;HTU21D;52764;51.036;5.852;2023-12-22T00:09:25;9.00;78.21
65995;HTU21D;52764;51.036;5.852;2023-12-22T00:11:51;9.00;78.22
65995;HTU21D;52764;51.036;5.852;2023-12-22T00:14:17;8.90;78.74
65995;HTU21D;52764;51.036;5.852;2023-12-22T00:16:42;8.91;79.11
65995;HTU21D;52764;51.036;5.852;2023-12-22T00:19:08;8.98;79.03
65995;HTU21D;52764;51.036;5.852;2023-12-22T00:21:34;9.05;78.87
65995;HTU21D;52764;51.036;5.852;2023-12-22T00:24:00;9.20;78.53
65995;HTU21D;52764;51.036;5.852;2023-12-22T00:26:26;9.35;78.03
65995;HTU21D;52764;51.036;5.852;2023-12-22T00:28:51;9.51;77.20
65995;HTU21D;52764;51.036;5.852;2023-12-22T00:31:17;9.49;76.99
65995;HTU21D;52764;51.036;5.852;2023-12-22T00:33:43;9.35;77.56
65995;HTU21D;52764;51.036;5.852;2023-12-22T00:36:09;9.32;77.63
65995;HTU21D;52764;51.036;5.852;2023-12-22T00:38:35;9.25;77.62
65995;HTU21D;52764;51.036;5.852;2023-12-22T00:41:00;9.24;77.54
65995;HTU21D;52764;51.036;5.852;2023-12-22T00:43:26;9.23;77.84
65995;HTU21D;52764;51.036;5.852;2023-12-22T00:45:52;9.26;77.63
65995;HTU21D;52764;51.036;5.852;2023-12-22T00:48:18;9.32;77.50
65995;HTU21D;52764;51.036;5.852;2023-12-22T00:50:43;9.41;77.20
65995;HTU21D;52764;51.036;5.852;2023-12-22T00:53:09;9.45;77.20
65995;HTU21D;52764;51.036;5.852;2023-12-22T00:55:35;9.52;77.11
65995;HTU21D;52764;51.036;5.852;2023-12-22T00:58:01;9.52;77.23
65995;HTU21D;52764;51.036;5.852;2023-12-22T01:00:26;9.59;77.21
65995;HTU21D;52764;51.036;5.852;2023-12-22T01:02:52;9.61;77.18
65995;HTU21D;52764;51.036;5.852;2023-12-22T01:05:18;9.64;77.16
65995;HTU21D;52764;51.036;5.852;2023-12-22T01:07:43;9.67;77.16
65995;HTU21D;52764;51.036;5.852;2023-12-22T01:10:09;9.71;77.15
65995;HTU21D;52764;51.036;5.852;2023-12-22T01:12:35;9.76;77.07
65995;HTU21D;52764;51.036;5.852;2023-12-22T01:15:01;9.78;77.02
65995;HTU21D;52764;51.036;5.852;2023-12-22T01:17:26;9.81;76.77
65995;HTU21D;52764;51.036;5.852;2023-12-22T01:19:52;9.83;76.47
65995;HTU21D;52764;51.036;5.852;2023-12-22T01:22:18;9.86;75.77
65995;HTU21D;52764;51.036;5.852;2023-12-22T01:24:43;9.76;76.20
65995;HTU21D;52764;51.036;5.852;2023-12-22T01:27:11;9.59;76.97
65995;HTU21D;52764;51.036;5.852;2023-12-22T01:29:37;9.48;77.40
65995;HTU21D;52764;51.036;5.852;2023-12-22T01:32:03;9.35;77.69
65995;HTU21D;52764;51.036;5.852;2023-12-22T01:34:29;9.25;77.99
65995;HTU21D;52764;51.036;5.852;2023-12-22T01:36:55;8.98;78.30
65995;HTU21D;52764;51.036;5.852;2023-12-22T01:39:21;9.18;78.19
65995;HTU21D;52764;51.036;5.852;2023-12-22T01:41:46;9.12;78.08
65995;HTU21D;52764;51.036;5.852;2023-12-22T01:44:12;9.05;77.93
65995;HTU21D;52764;51.036;5.852;2023-12-22T01:46:38;9.04;77.82
65995;HTU21D;52764;51.036;5.852;2023-12-22T01:49:05;9.07;77.82
65995;HTU21D;52764;51.036;5.852;2023-12-22T01:51:33;9.09;78.06
65995;HTU21D;52764;51.036;5.852;2023-12-22T01:54:00;9.17;78.28
65995;HTU21D;52764;51.036;5.852;2023-12-22T01:56:27;9.21;78.34
65995;HTU21D;52764;51.036;5.852;2023-12-22T01:58:57;9.22;78.17
65995;HTU21D;52764;51.036;5.852;2023-12-22T02:01:24;9.22;78.05
65995;HTU21D;52764;51.036;5.852;2023-12-22T02:03:51;9.20;77.81
65995;HTU21D;52764;51.036;5.852;2023-12-22T02:06:18;9.19;77.74
65995;HTU21D;52764;51.036;5.852;2023-12-22T02:08:47;9.23;77.67
65995;HTU21D;52764;51.036;5.852;2023-12-22T02:11:13;9.32;77.27
65995;HTU21D;52764;51.036;5.852;2023-12-22T02:13:40;9.35;77.27
65995;HTU21D;52764;51.036;5.852;2023-12-22T02:16:34;9.38;77.41
65995;HTU21D;52764;51.036;5.852;2023-12-22T02:22:06;9.50;77.34
65995;HTU21D;52764;51.036;5.852;2023-12-22T02:24:32;9.51;77.09
65995;HTU21D;52764;51.036;5.852;2023-12-22T02:27:44;9.54;76.70
65995;HTU21D;52764;51.036;5.852;2023-12-22T02:30:12;9.54;76.50
65995;HTU21D;52764;51.036;5.852;2023-12-22T02:32:45;9.50;76.26
65995;HTU21D;52764;51.036;5.852;2023-12-22T02:35:22;9.47;76.17
65995;HTU21D;52764;51.036;5.852;2023-12-22T02:37:50;9.45;76.18
65995;HTU21D;52764;51.036;5.852;2023-12-22T02:40:17;9.48;75.77
65995;HTU21D;52764;51.036;5.852;2023-12-22T02:42:44;9.47;75.62
65995;HTU21D;52764;51.036;5.852;2023-12-22T02:45:14;9.53;75.05
65995;HTU21D;52764;51.036;5.852;2023-12-22T02:47:41;9.61;74.44
65995;HTU21D;52764;51.036;5.852;2023-12-22T02:50:08;9.70;73.44
65995;HTU21D;52764;51.036;5.852;2023-12-22T02:52:34;9.74;73.28
65995;HTU21D;52764;51.036;5.852;2023-12-22T02:55:01;9.79;73.12
65995;HTU21D;52764;51.036;5.852;2023-12-22T02:57:27;9.74;73.48
65995;HTU21D;52764;51.036;5.852;2023-12-22T02:59:53;9.57;73.90
65995;HTU21D;52764;51.036;5.852;2023-12-22T03:02:18;9.46;74.39
65995;HTU21D;52764;51.036;5.852;2023-12-22T03:04:44;9.40;74.50
65995;HTU21D;52764;51.036;5.852;2023-12-22T03:07:12;9.36;74.54
65995;HTU21D;52764;51.036;5.852;2023-12-22T03:09:38;9.36;74.58
65995;HTU21D;52764;51.036;5.852;2023-12-22T03:12:04;9.37;74.59
65995;HTU21D;52764;51.036;5.852;2023-12-22T03:14:31;9.39;74.76
65995;HTU21D;52764;51.036;5.852;2023-12-22T03:17:03;9.49;74.58
65995;HTU21D;52764;51.036;5.852;2023-12-22T03:19:29;9.55;74.49
65995;HTU21D;52764;51.036;5.852;2023-12-22T03:21:55;9.61;74.27
65995;HTU21D;52764;51.036;5.852;2023-12-22T03:24:22;9.62;74.28
65995;HTU21D;52764;51.036;5.852;2023-12-22T03:26:50;9.62;74.39
65995;HTU21D;52764;51.036;5.852;2023-12-22T03:29:16;9.63;74.51
65995;HTU21D;52764;51.036;5.852;2023-12-22T03:31:43;9.62;74.94
65995;HTU21D;52764;51.036;5.852;2023-12-22T03:34:09;9.61;75.17
65995;HTU21D;52764;51.036;5.852;2023-12-22T03:36:34;9.60;75.45
65995;HTU21D;52764;51.036;5.852;2023-12-22T03:39:01;9.61;75.68
65995;HTU21D;52764;51.036;5.852;2023-12-22T03:41:28;9.65;75.88
65995;HTU21D;52764;51.036;5.852;2023-12-22T03:43:55;9.68;75.86
65995;HTU21D;52764;51.036;5.852;2023-12-22T03:46:21;9.71;75.67
65995;HTU21D;52764;51.036;5.852;2023-12-22T03:48:47;9.77;75.73
65995;HTU21D;52764;51.036;5.852;2023-12-22T03:51:13;9.74;75.86
65995;HTU21D;52764;51.036;5.852;2023-12-22T03:53:40;9.72;75.96
65995;HTU21D;52764;51.036;5.852;2023-12-22T03:56:10;9.71;76.02
65995;HTU21D;52764;51.036;5.852;2023-12-22T03:58:36;9.74;76.21
65995;HTU21D;52764;51.036;5.852;2023-12-22T04:01:02;9.74;76.30
65995;HTU21D;52764;51.036;5.852;2023-12-22T04:03:28;9.77;76.16
65995;HTU21D;52764;51.036;5.852;2023-12-22T04:05:54;9.77;76.28
65995;HTU21D;52764;51.036;5.852;2023-12-22T04:08:19;9.76;76.55
65995;HTU21D;52764;51.036;5.852;2023-12-22T04:10:46;9.72;76.82
65995;HTU21D;52764;51.036;5.852;2023-12-22T04:13:12;9.72;76.97
65995;HTU21D;52764;51.036;5.852;2023-12-22T04:15:38;9.70;77.05
65995;HTU21D;52764;51.036;5.852;2023-12-22T04:18:04;9.70;77.02
65995;HTU21D;52764;51.036;5.852;2023-12-22T04:20:30;9.68;77.03
65995;HTU21D;52764;51.036;5.852;2023-12-22T04:22:56;9.68;77.13
65995;HTU21D;52764;51.036;5.852;2023-12-22T04:25:21;9.71;77.24
65995;HTU21D;52764;51.036;5.852;2023-12-22T04:27:48;9.74;77.19
65995;HTU21D;52764;51.036;5.852;2023-12-22T04:30:15;9.78;77.21
65995;HTU21D;52764;51.036;5.852;2023-12-22T04:32:41;9.79;77.24
65995;HTU21D;52764;51.036;5.852;2023-12-22T04:35:07;9.79;77.25
65995;HTU21D;52764;51.036;5.852;2023-12-22T04:37:33;9.79;76.95
65995;HTU21D;52764;51.036;5.852;2023-12-22T04:39:59;9.85;76.54
65995;HTU21D;52764;51.036;5.852;2023-12-22T04:42:25;9.88;76.24
65995;HTU21D;52764;51.036;5.852;2023-12-22T04:44:54;9.93;75.95
65995;HTU21D;52764;51.036;5.852;2023-12-22T04:47:20;9.95;75.44
65995;HTU21D;52764;51.036;5.852;2023-12-22T04:49:46;9.99;74.90
65995;HTU21D;52764;51.036;5.852;2023-12-22T04:52:12;10.06;74.24
65995;HTU21D;52764;51.036;5.852;2023-12-22T04:54:38;10.05;73.93
65995;HTU21D;52764;51.036;5.852;2023-12-22T04:57:04;10.14;73.44
65995;HTU21D;52764;51.036;5.852;2023-12-22T04:59:30;10.25;72.30
65995;HTU21D;52764;51.036;5.852;2023-12-22T05:01:56;10.22;72.41
65995;HTU21D;52764;51.036;5.852;2023-12-22T05:04:22;10.27;72.12
65995;HTU21D;52764;51.036;5.852;2023-12-22T05:06:48;10.29;71.98
65995;HTU21D;52764;51.036;5.852;2023-12-22T05:09:14;10.31;71.97
65995;HTU21D;52764;51.036;5.852;2023-12-22T05:11:40;10.36;72.00
65995;HTU21D;52764;51.036;5.852;2023-12-22T05:14:06;10.37;72.05
65995;HTU21D;52764;51.036;5.852;2023-12-22T05:16:32;10.40;72.13
65995;HTU21D;52764;51.036;5.852;2023-12-22T05:19:01;10.42;72.05
65995;HTU21D;52764;51.036;5.852;2023-12-22T05:21:26;10.40;72.35
65995;HTU21D;52764;51.036;5.852;2023-12-22T05:23:54;10.34;73.28
65995;HTU21D;52764;51.036;5.852;2023-12-22T05:26:20;10.18;74.40
65995;HTU21D;52764;51.036;5.852;2023-12-22T05:28:46;9.97;75.75
65995;HTU21D;52764;51.036;5.852;2023-12-22T05:31:12;9.89;76.92
65995;HTU21D;52764;51.036;5.852;2023-12-22T05:33:38;9.82;77.74
65995;HTU21D;52764;51.036;5.852;2023-12-22T05:36:04;9.79;78.46
65995;HTU21D;52764;51.036;5.852;2023-12-22T05:38:30;9.79;78.96
65995;HTU21D;52764;51.036;5.852;2023-12-22T05:40:56;9.79;79.30
65995;HTU21D;52764;51.036;5.852;2023-12-22T05:43:22;9.78;79.66
65995;HTU21D;52764;51.036;5.852;2023-12-22T05:45:48;9.76;79.95
65995;HTU21D;52764;51.036;5.852;2023-12-22T05:48:13;9.77;80.12
65995;HTU21D;52764;51.036;5.852;2023-12-22T05:50:39;9.78;80.23
65995;HTU21D;52764;51.036;5.852;2023-12-22T05:53:05;9.78;80.33
65995;HTU21D;52764;51.036;5.852;2023-12-22T05:55:30;9.83;80.47
65995;HTU21D;52764;51.036;5.852;2023-12-22T05:57:56;9.86;80.72
65995;HTU21D;52764;51.036;5.852;2023-12-22T06:00:22;9.90;80.88
65995;HTU21D;52764;51.036;5.852;2023-12-22T06:02:47;9.92;80.99
65995;HTU21D;52764;51.036;5.852;2023-12-22T06:05:13;9.94;80.98
65995;HTU21D;52764;51.036;5.852;2023-12-22T06:07:40;9.93;81.07
65995;HTU21D;52764;51.036;5.852;2023-12-22T06:10:06;9.91;80.93
65995;HTU21D;52764;51.036;5.852;2023-12-22T06:12:35;9.92;80.86
65995;HTU21D;52764;51.036;5.852;2023-12-22T06:15:01;9.96;80.63
65995;HTU21D;52764;51.036;5.852;2023-12-22T06:17:26;9.95;80.54
65995;HTU21D;52764;51.036;5.852;2023-12-22T06:19:52;9.98;80.46
65995;HTU21D;52764;51.036;5.852;2023-12-22T06:22:18;9.96;80.13
65995;HTU21D;52764;51.036;5.852;2023-12-22T06:24:43;9.97;80.04
65995;HTU21D;52764;51.036;5.852;2023-12-22T06:27:10;9.99;79.96
65995;HTU21D;52764;51.036;5.852;2023-12-22T06:29:36;10.00;79.76
65995;HTU21D;52764;51.036;5.852;2023-12-22T06:32:01;10.01;79.67
65995;HTU21D;52764;51.036;5.852;2023-12-22T06:34:27;10.00;79.80
65995;HTU21D;52764;51.036;5.852;2023-12-22T06:36:53;9.95;80.24
65995;HTU21D;52764;51.036;5.852;2023-12-22T06:39:18;9.98;80.37
65995;HTU21D;52764;51.036;5.852;2023-12-22T06:41:45;9.97;80.28
65995;HTU21D;52764;51.036;5.852;2023-12-22T06:44:11;9.96;80.40
65995;HTU21D;52764;51.036;5.852;2023-12-22T06:46:36;9.93;80.41
65995;HTU21D;52764;51.036;5.852;2023-12-22T06:49:02;9.95;80.52
65995;HTU21D;52764;51.036;5.852;2023-12-22T06:51:30;9.98;80.54
65995;HTU21D;52764;51.036;5.852;2023-12-22T06:53:57;9.99;80.56
65995;HTU21D;52764;51.036;5.852;2023-12-22T06:56:27;10.03;80.65
65995;HTU21D;52764;51.036;5.852;2023-12-22T06:58:55;10.05;80.61
65995;HTU21D;52764;51.036;5.852;2023-12-22T07:03:50;10.12;80.50
65995;HTU21D;52764;51.036;5.852;2023-12-22T07:06:17;10.15;80.44
65995;HTU21D;52764;51.036;5.852;2023-12-22T07:08:43;10.18;80.39
65995;HTU21D;52764;51.036;5.852;2023-12-22T07:11:10;10.22;80.43
65995;HTU21D;52764;51.036;5.852;2023-12-22T07:13:36;10.22;80.28
65995;HTU21D;52764;51.036;5.852;2023-12-22T07:16:02;10.25;80.10
65995;HTU21D;52764;51.036;5.852;2023-12-22T07:18:28;10.27;79.77
65995;HTU21D;52764;51.036;5.852;2023-12-22T07:20:57;10.34;79.64
65995;HTU21D;52764;51.036;5.852;2023-12-22T07:23:24;10.34;79.52
65995;HTU21D;52764;51.036;5.852;2023-12-22T07:25:50;10.36;79.42
65995;HTU21D;52764;51.036;5.852;2023-12-22T07:28:15;10.38;79.31
65995;HTU21D;52764;51.036;5.852;2023-12-22T07:30:41;10.37;79.21
65995;HTU21D;52764;51.036;5.852;2023-12-22T07:33:07;10.39;79.20
65995;HTU21D;52764;51.036;5.852;2023-12-22T07:35:33;10.40;79.20
65995;HTU21D;52764;51.036;5.852;2023-12-22T07:38:00;10.40;79.19
65995;HTU21D;52764;51.036;5.852;2023-12-22T07:40:28;10.39;79.36
65995;HTU21D;52764;51.036;5.852;2023-12-22T07:42:56;10.35;79.43
65995;HTU21D;52764;51.036;5.852;2023-12-22T07:45:22;10.39;79.41
65995;HTU21D;52764;51.036;5.852;2023-12-22T07:47:48;10.39;79.46
65995;HTU21D;52764;51.036;5.852;2023-12-22T07:50:14;10.41;79.36
65995;HTU21D;52764;51.036;5.852;2023-12-22T07:52:39;10.41;79.49
65995;HTU21D;52764;51.036;5.852;2023-12-22T07:55:06;10.41;79.56
65995;HTU21D;52764;51.036;5.852;2023-12-22T07:57:32;10.39;79.68
65995;HTU21D;52764;51.036;5.852;2023-12-22T07:59:58;10.36;79.99
65995;HTU21D;52764;51.036;5.852;2023-12-22T08:02:24;10.31;80.28
65995;HTU21D;52764;51.036;5.852;2023-12-22T08:04:49;10.28;80.72
65995;HTU21D;52764;51.036;5.852;2023-12-22T08:07:16;10.23;81.05
65995;HTU21D;52764;51.036;5.852;2023-12-22T08:09:42;10.20;81.36
65995;HTU21D;52764;51.036;5.852;2023-12-22T08:12:07;10.20;81.62
65995;HTU21D;52764;51.036;5.852;2023-12-22T08:14:33;10.22;81.62
65995;HTU21D;52764;51.036;5.852;2023-12-22T08:16:59;10.22;81.72
65995;HTU21D;52764;51.036;5.852;2023-12-22T08:19:25;10.18;81.97
65995;HTU21D;52764;51.036;5.852;2023-12-22T08:21:54;10.16;82.08
65995;HTU21D;52764;51.036;5.852;2023-12-22T08:24:20;10.16;82.19
65995;HTU21D;52764;51.036;5.852;2023-12-22T08:26:46;10.21;82.10
65995;HTU21D;52764;51.036;5.852;2023-12-22T08:29:12;10.29;81.89
65995;HTU21D;52764;51.036;5.852;2023-12-22T08:31:37;10.30;81.82
65995;HTU21D;52764;51.036;5.852;2023-12-22T08:34:03;10.34;81.72
65995;HTU21D;52764;51.036;5.852;2023-12-22T08:36:29;10.38;81.55
65995;HTU21D;52764;51.036;5.852;2023-12-22T08:38:54;10.43;81.48
65995;HTU21D;52764;51.036;5.852;2023-12-22T08:41:20;10.49;81.27
65995;HTU21D;52764;51.036;5.852;2023-12-22T08:43:46;10.50;81.24
65995;HTU21D;52764;51.036;5.852;2023-12-22T08:46:12;10.50;81.23
65995;HTU21D;52764;51.036;5.852;2023-12-22T08:48:38;10.52;81.20
65995;HTU21D;52764;51.036;5.852;2023-12-22T08:51:04;10.56;81.20
65995;HTU21D;52764;51.036;5.852;2023-12-22T08:53:30;10.55;81.33
65995;HTU21D;52764;51.036;5.852;2023-12-22T08:56:00;10.56;81.53
65995;HTU21D;52764;51.036;5.852;2023-12-22T08:58:26;10.58;81.52
65995;HTU21D;52764;51.036;5.852;2023-12-22T09:00:52;10.60;81.48
65995;HTU21D;52764;51.036;5.852;2023-12-22T09:03:17;10.64;81.52
65995;HTU21D;52764;51.036;5.852;2023-12-22T09:05:43;10.69;81.52
65995;HTU21D;52764;51.036;5.852;2023-12-22T09:08:09;10.72;81.42
65995;HTU21D;52764;51.036;5.852;2023-12-22T09:10:34;10.78;81.45
65995;HTU21D;52764;51.036;5.852;2023-12-22T09:13:01;10.79;81.43
65995;HTU21D;52764;51.036;5.852;2023-12-22T09:15:27;10.71;81.73
65995;HTU21D;52764;51.036;5.852;2023-12-22T09:17:53;10.69;82.09
65995;HTU21D;52764;51.036;5.852;2023-12-22T09:20:21;10.58;82.68
65995;HTU21D;52764;51.036;5.852;2023-12-22T09:22:47;10.57;83.22
65995;HTU21D;52764;51.036;5.852;2023-12-22T09:25:13;10.57;83.41
65995;HTU21D;52764;51.036;5.852;2023-12-22T09:27:39;10.56;83.80
65995;HTU21D;52764;51.036;5.852;2023-12-22T09:30:05;10.55;84.13
65995;HTU21D;52764;51.036;5.852;2023-12-22T09:32:32;10.49;84.47
65995;HTU21D;52764;51.036;5.852;2023-12-22T09:34:58;10.46;81.70
65995;HTU21D;52764;51.036;5.852;2023-12-22T09:37:26;10.44;85.12
65995;HTU21D;52764;51.036;5.852;2023-12-22T09:39:52;10.42;85.33
65995;HTU21D;52764;51.036;5.852;2023-12-22T09:42:21;10.43;85.53
65995;HTU21D;52764;51.036;5.852;2023-12-22T09:44:49;10.43;85.71
65995;HTU21D;52764;51.036;5.852;2023-12-22T09:47:16;10.44;85.87
65995;HTU21D;52764;51.036;5.852;2023-12-22T09:49:43;10.46;85.82
65995;HTU21D;52764;51.036;5.852;2023-12-22T09:52:11;10.50;85.99
65995;HTU21D;52764;51.036;5.852;2023-12-22T09:54:38;10.51;85.99
65995;HTU21D;52764;51.036;5.852;2023-12-22T09:57:05;10.49;86.07
65995;HTU21D;52764;51.036;5.852;2023-12-22T09:59:32;10.50;86.29
65995;HTU21D;52764;51.036;5.852;2023-12-22T10:02:00;10.51;86.38
65995;HTU21D;52764;51.036;5.852;2023-12-22T10:04:26;10.51;86.51
65995;HTU21D;52764;51.036;5.852;2023-12-22T10:06:58;10.54;86.61
65995;HTU21D;52764;51.036;5.852;2023-12-22T10:09:26;10.55;86.62
65995;HTU21D;52764;51.036;5.852;2023-12-22T10:11:52;10.54;86.74
65995;HTU21D;52764;51.036;5.852;2023-12-22T10:14:20;10.58;86.89
65995;HTU21D;52764;51.036;5.852;2023-12-22T10:16:49;10.62;86.96
65995;HTU21D;52764;51.036;5.852;2023-12-22T10:19:15;10.70;87.15
65995;HTU21D;52764;51.036;5.852;2023-12-22T10:21:41;10.73;87.11
65995;HTU21D;52764;51.036;5.852;2023-12-22T10:24:07;10.75;87.06
65995;HTU21D;52764;51.036;5.852;2023-12-22T10:26:33;10.79;87.09
65995;HTU21D;52764;51.036;5.852;2023-12-22T10:28:58;10.85;87.09
65995;HTU21D;52764;51.036;5.852;2023-12-22T10:31:24;10.89;87.06
65995;HTU21D;52764;51.036;5.852;2023-12-22T10:33:51;10.96;86.88
65995;HTU21D;52764;51.036;5.852;2023-12-22T10:36:17;11.03;86.83
65995;HTU21D;52764;51.036;5.852;2023-12-22T10:38:43;11.13;86.72
65995;HTU21D;52764;51.036;5.852;2023-12-22T10:41:15;11.26;86.38
65995;HTU21D;52764;51.036;5.852;2023-12-22T10:43:55;11.32;86.00
65995;HTU21D;52764;51.036;5.852;2023-12-22T10:46:22;11.36;85.77
65995;HTU21D;52764;51.036;5.852;2023-12-22T10:48:53;11.39;85.53
65995;HTU21D;52764;51.036;5.852;2023-12-22T10:51:18;11.41;85.35
65995;HTU21D;52764;51.036;5.852;2023-12-22T10:53:44;11.46;85.22
65995;HTU21D;52764;51.036;5.852;2023-12-22T10:56:11;11.49;85.06
65995;HTU21D;52764;51.036;5.852;2023-12-22T10:58:37;11.52;84.97
65995;HTU21D;52764;51.036;5.852;2023-12-22T11:01:06;11.55;84.90
65995;HTU21D;52764;51.036;5.852;2023-12-22T11:03:39;11.55;84.73
65995;HTU21D;52764;51.036;5.852;2023-12-22T11:06:06;11.58;84.46
65995;HTU21D;52764;51.036;5.852;2023-12-22T11:08:36;11.55;84.50
65995;HTU21D;52764;51.036;5.852;2023-12-22T11:11:10;11.56;84.43
65995;HTU21D;52764;51.036;5.852;2023-12-22T11:13:38;11.63;84.22
65995;HTU21D;52764;51.036;5.852;2023-12-22T11:16:05;11.68;83.90
65995;HTU21D;52764;51.036;5.852;2023-12-22T11:18:35;11.67;83.73
65995;HTU21D;52764;51.036;5.852;2023-12-22T11:21:05;11.73;83.43
65995;HTU21D;52764;51.036;5.852;2023-12-22T11:23:33;11.74;83.45
65995;HTU21D;52764;51.036;5.852;2023-12-22T11:26:01;11.78;83.38
65995;HTU21D;52764;51.036;5.852;2023-12-22T11:28:28;11.77;83.40
65995;HTU21D;52764;51.036;5.852;2023-12-22T11:30:56;11.83;83.29
65995;HTU21D;52764;51.036;5.852;2023-12-22T11:33:25;11.84;83.00
65995;HTU21D;52764;51.036;5.852;2023-12-22T11:35:56;11.89;83.04
65995;HTU21D;52764;51.036;5.852;2023-12-22T11:38:21;11.92;82.84
65995;HTU21D;52764;51.036;5.852;2023-12-22T11:40:51;11.99;82.43
65995;HTU21D;52764;51.036;5.852;2023-12-22T11:43:19;11.99;82.10
65995;HTU21D;52764;51.036;5.852;2023-12-22T11:45:45;12.06;81.80
65995;HTU21D;52764;51.036;5.852;2023-12-22T11:48:11;12.11;81.39
65995;HTU21D;52764;51.036;5.852;2023-12-22T11:50:37;12.14;81.16
65995;HTU21D;52764;51.036;5.852;2023-12-22T11:53:21;12.11;80.99
65995;HTU21D;52764;51.036;5.852;2023-12-22T11:56:03;12.13;80.84
65995;HTU21D;52764;51.036;5.852;2023-12-22T11:58:44;12.18;80.75
65995;HTU21D;52764;51.036;5.852;2023-12-22T12:01:18;12.20;80.61
65995;HTU21D;52764;51.036;5.852;2023-12-22T12:03:50;12.18;80.40
65995;HTU21D;52764;51.036;5.852;2023-12-22T12:08:53;12.16;80.34
65995;HTU21D;52764;51.036;5.852;2023-12-22T12:11:23;12.15;80.55
65995;HTU21D;52764;51.036;5.852;2023-12-22T12:13:50;12.17;80.44
65995;HTU21D;52764;51.036;5.852;2023-12-22T12:16:20;12.16;80.25
65995;HTU21D;52764;51.036;5.852;2023-12-22T12:18:50;12.20;80.01
65995;HTU21D;52764;51.036;5.852;2023-12-22T12:21:18;12.19;79.73
65995;HTU21D;52764;51.036;5.852;2023-12-22T12:23:44;12.15;79.82
65995;HTU21D;52764;51.036;5.852;2023-12-22T12:26:11;12.14;80.14
65995;HTU21D;52764;51.036;5.852;2023-12-22T12:28:37;12.13;80.24
65995;HTU21D;52764;51.036;5.852;2023-12-22T12:31:08;12.13;80.42
65995;HTU21D;52764;51.036;5.852;2023-12-22T12:33:37;12.11;80.55
65995;HTU21D;52764;51.036;5.852;2023-12-22T12:36:04;12.10;80.74
65995;HTU21D;52764;51.036;5.852;2023-12-22T12:38:54;12.06;80.57
65995;HTU21D;52764;51.036;5.852;2023-12-22T12:41:32;12.04;80.53
65995;HTU21D;52764;51.036;5.852;2023-12-22T12:44:03;12.06;80.36
65995;HTU21D;52764;51.036;5.852;2023-12-22T12:46:37;12.07;80.42
65995;HTU21D;52764;51.036;5.852;2023-12-22T12:49:07;12.13;80.11
65995;HTU21D;52764;51.036;5.852;2023-12-22T12:51:43;12.18;79.72
65995;HTU21D;52764;51.036;5.852;2023-12-22T12:54:14;12.26;79.38
65995;HTU21D;52764;51.036;5.852;2023-12-22T12:56:44;12.33;78.98
65995;HTU21D;52764;51.036;5.852;2023-12-22T12:59:14;12.36;78.55
65995;HTU21D;52764;51.036;5.852;2023-12-22T13:01:42;12.41;78.24
65995;HTU21D;52764;51.036;5.852;2023-12-22T13:04:09;12.48;77.89
65995;HTU21D;52764;51.036;5.852;2023-12-22T13:06:35;12.52;77.56
65995;HTU21D;52764;51.036;5.852;2023-12-22T13:09:01;12.52;77.43
65995;HTU21D;52764;51.036;5.852;2023-12-22T13:11:29;12.52;77.05
65995;HTU21D;52764;51.036;5.852;2023-12-22T13:13:56;12.52;76.82
65995;HTU21D;52764;51.036;5.852;2023-12-22T13:16:24;12.55;76.82
65995;HTU21D;52764;51.036;5.852;2023-12-22T13:18:57;12.56;76.84
65995;HTU21D;52764;51.036;5.852;2023-12-22T13:21:24;12.60;76.38
65995;HTU21D;52764;51.036;5.852;2023-12-22T13:24:12;12.58;76.37
65995;HTU21D;52764;51.036;5.852;2023-12-22T13:26:39;12.61;76.22
65995;HTU21D;52764;51.036;5.852;2023-12-22T13:29:06;12.60;76.12
65995;HTU21D;52764;51.036;5.852;2023-12-22T13:31:32;12.57;76.24
65995;HTU21D;52764;51.036;5.852;2023-12-22T13:33:59;12.53;76.21
65995;HTU21D;52764;51.036;5.852;2023-12-22T13:36:25;12.52;76.21
65995;HTU21D;52764;51.036;5.852;2023-12-22T13:38:52;12.56;76.14
65995;HTU21D;52764;51.036;5.852;2023-12-22T13:41:18;12.61;76.04
65995;HTU21D;52764;51.036;5.852;2023-12-22T13:43:44;12.61;75.95
65995;HTU21D;52764;51.036;5.852;2023-12-22T13:46:12;12.58;75.99
65995;HTU21D;52764;51.036;5.852;2023-12-22T13:48:40;12.48;76.69
65995;HTU21D;52764;51.036;5.852;2023-12-22T13:51:06;12.37;77.40
65995;HTU21D;52764;51.036;5.852;2023-12-22T13:53:32;12.27;77.95
65995;HTU21D;52764;51.036;5.852;2023-12-22T13:55:59;12.16;78.53
65995;HTU21D;52764;51.036;5.852;2023-12-22T13:58:26;12.08;79.16
65995;HTU21D;52764;51.036;5.852;2023-12-22T14:00:53;12.04;79.38
65995;HTU21D;52764;51.036;5.852;2023-12-22T14:03:19;12.01;79.52
65995;HTU21D;52764;51.036;5.852;2023-12-22T14:05:48;11.98;79.33
65995;HTU21D;52764;51.036;5.852;2023-12-22T14:08:15;12.01;79.30
65995;HTU21D;52764;51.036;5.852;2023-12-22T14:10:47;12.02;79.06
65995;HTU21D;52764;51.036;5.852;2023-12-22T14:13:14;12.13;78.66
65995;HTU21D;52764;51.036;5.852;2023-12-22T14:15:43;12.20;78.47
65995;HTU21D;52764;51.036;5.852;2023-12-22T14:18:10;12.25;78.23
65995;HTU21D;52764;51.036;5.852;2023-12-22T14:20:36;12.23;78.00
65995;HTU21D;52764;51.036;5.852;2023-12-22T14:23:02;12.21;78.31
65995;HTU21D;52764;51.036;5.852;2023-12-22T14:25:28;12.12;78.44
65995;HTU21D;52764;51.036;5.852;2023-12-22T14:27:54;12.04;78.92
65995;HTU21D;52764;51.036;5.852;2023-12-22T14:30:23;11.97;79.44
65995;HTU21D;52764;51.036;5.852;2023-12-22T14:32:49;11.93;79.59
65995;HTU21D;52764;51.036;5.852;2023-12-22T14:35:15;11.92;79.58
65995;HTU21D;52764;51.036;5.852;2023-12-22T14:37:40;11.92;79.56
65995;HTU21D;52764;51.036;5.852;2023-12-22T14:40:08;11.99;79.44
65995;HTU21D;52764;51.036;5.852;2023-12-22T14:42:34;12.00;79.40
65995;HTU21D;52764;51.036;5.852;2023-12-22T14:45:00;12.02;79.24
65995;HTU21D;52764;51.036;5.852;2023-12-22T14:47:29;12.03;79.14
65995;HTU21D;52764;51.036;5.852;2023-12-22T14:49:56;12.03;79.08
65995;HTU21D;52764;51.036;5.852;2023-12-22T14:52:25;12.05;79.02
65995;HTU21D;52764;51.036;5.852;2023-12-22T14:54:51;12.12;78.72
65995;HTU21D;52764;51.036;5.852;2023-12-22T14:57:17;12.19;78.14
65995;HTU21D;52764;51.036;5.852;2023-12-22T14:59:47;12.26;77.89
65995;HTU21D;52764;51.036;5.852;2023-12-22T15:02:12;12.15;78.13
65995;HTU21D;52764;51.036;5.852;2023-12-22T15:04:38;12.02;78.68
65995;HTU21D;52764;51.036;5.852;2023-12-22T15:07:04;11.94;79.12
65995;HTU21D;52764;51.036;5.852;2023-12-22T15:09:29;11.90;79.16
65995;HTU21D;52764;51.036;5.852;2023-12-22T15:11:55;11.83;79.51
65995;HTU21D;52764;51.036;5.852;2023-12-22T15:14:21;11.77;79.80
65995;HTU21D;52764;51.036;5.852;2023-12-22T15:16:47;11.73;80.08
65995;HTU21D;52764;51.036;5.852;2023-12-22T15:19:16;11.73;80.42
65995;HTU21D;52764;51.036;5.852;2023-12-22T15:21:43;11.71;80.73
65995;HTU21D;52764;51.036;5.852;2023-12-22T15:24:09;11.70;80.88
65995;HTU21D;52764;51.036;5.852;2023-12-22T15:26:36;11.72;80.88
65995;HTU21D;52764;51.036;5.852;2023-12-22T15:29:02;11.72;81.02
65995;HTU21D;52764;51.036;5.852;2023-12-22T15:31:29;11.72;81.01